sensor_id;sensor_type;location;lat;lon;timestamp;P1;durP1;ratioP1;P2;durP2;ratioP2
21114;SDS011;10715;48.546;9.896;2022-10-20T00:00:55;12.37;;;7.77;;
21114;SDS011;10715;48.546;9.896;2022-10-20T00:03:21;15.03;;;8.67;;
21114;SDS011;10715;48.546;9.896;2022-10-20T00:05:47;13.33;;;7.97;;
21114;SDS011;10715;48.546;9.896;2022-10-20T00:08:13;14.03;;;8.97;;
21114;SDS011;10715;48.546;9.896;2022-10-20T00:10:39;19.03;;;7.97;;
21114;SDS011;10715;48.546;9.896;2022-10-20T00:13:05;13.60;;;9.40;;
21114;SDS011;10715;48.546;9.896;2022-10-20T00:15:30;14.40;;;9.17;;
21114;SDS011;10715;48.546;9.896;2022-10-20T00:17:56;15.53;;;10.23;;
21114;SDS011;10715;48.546;9.896;2022-10-20T00:20:22;14.30;;;9.40;;
21114;SDS011;10715;48.546;9.896;2022-10-20T00:22:48;14.77;;;8.83;;
21114;SDS011;10715;48.546;9.896;2022-10-20T00:25:14;11.80;;;7.97;;
21114;SDS011;10715;48.546;9.896;2022-10-20T00:27:39;15.93;;;9.23;;
21114;SDS011;10715;48.546;9.896;2022-10-20T00:30:05;21.50;;;9.87;;
21114;SDS011;10715;48.546;9.896;2022-10-20T00:32:31;16.53;;;10.77;;
21114;SDS011;10715;48.546;9.896;2022-10-20T00:34:57;12.70;;;8.07;;
21114;SDS011;10715;48.546;9.896;2022-10-20T00:37:23;16.50;;;9.20;;
21114;SDS011;10715;48.546;9.896;2022-10-20T00:39:48;12.30;;;7.20;;
21114;SDS011;10715;48.546;9.896;2022-10-20T00:42:15;17.63;;;10.50;;
21114;SDS011;10715;48.546;9.896;2022-10-20T00:44:53;19.03;;;9.80;;
21114;SDS011;10715;48.546;9.896;2022-10-20T00:47:24;19.67;;;9.40;;
21114;SDS011;10715;48.546;9.896;2022-10-20T00:49:55;14.90;;;8.83;;
21114;SDS011;10715;48.546;9.896;2022-10-20T00:52:29;15.60;;;10.53;;
21114;SDS011;10715;48.546;9.896;2022-10-20T00:54:55;15.27;;;8.57;;
21114;SDS011;10715;48.546;9.896;2022-10-20T00:57:20;15.97;;;9.13;;
21114;SDS011;10715;48.546;9.896;2022-10-20T00:59:46;24.00;;;8.83;;
21114;SDS011;10715;48.546;9.896;2022-10-20T01:02:12;16.53;;;9.60;;
21114;SDS011;10715;48.546;9.896;2022-10-20T01:04:38;16.13;;;10.40;;
21114;SDS011;10715;48.546;9.896;2022-10-20T01:07:05;17.97;;;9.03;;
21114;SDS011;10715;48.546;9.896;2022-10-20T01:09:31;27.57;;;10.20;;
21114;SDS011;10715;48.546;9.896;2022-10-20T01:12:01;14.30;;;9.70;;
21114;SDS011;10715;48.546;9.896;2022-10-20T01:18:32;16.30;;;9.80;;
21114;SDS011;10715;48.546;9.896;2022-10-20T01:29:07;18.43;;;10.67;;
21114;SDS011;10715;48.546;9.896;2022-10-20T01:31:44;13.70;;;8.43;;
21114;SDS011;10715;48.546;9.896;2022-10-20T01:34:17;13.50;;;8.10;;
21114;SDS011;10715;48.546;9.896;2022-10-20T01:37:00;17.63;;;12.13;;
21114;SDS011;10715;48.546;9.896;2022-10-20T01:39:39;17.57;;;10.23;;
21114;SDS011;10715;48.546;9.896;2022-10-20T01:42:25;13.33;;;9.70;;
21114;SDS011;10715;48.546;9.896;2022-10-20T01:44:57;19.20;;;9.13;;
21114;SDS011;10715;48.546;9.896;2022-10-20T01:49:55;22.33;;;10.83;;
21114;SDS011;10715;48.546;9.896;2022-10-20T01:52:22;22.10;;;10.27;;
21114;SDS011;10715;48.546;9.896;2022-10-20T01:54:48;17.20;;;10.57;;
21114;SDS011;10715;48.546;9.896;2022-10-20T02:07:53;27.90;;;13.17;;
21114;SDS011;10715;48.546;9.896;2022-10-20T02:10:31;23.13;;;12.93;;
21114;SDS011;10715;48.546;9.896;2022-10-20T02:13:05;32.63;;;13.87;;
21114;SDS011;10715;48.546;9.896;2022-10-20T02:15:34;32.47;;;14.50;;
21114;SDS011;10715;48.546;9.896;2022-10-20T02:18:04;32.80;;;16.27;;
21114;SDS011;10715;48.546;9.896;2022-10-20T02:20:32;33.93;;;18.27;;
21114;SDS011;10715;48.546;9.896;2022-10-20T02:22:58;37.07;;;19.03;;
21114;SDS011;10715;48.546;9.896;2022-10-20T02:25:27;41.30;;;19.33;;
21114;SDS011;10715;48.546;9.896;2022-10-20T02:27:54;31.50;;;16.00;;
21114;SDS011;10715;48.546;9.896;2022-10-20T02:30:22;34.40;;;16.87;;
21114;SDS011;10715;48.546;9.896;2022-10-20T02:32:49;46.10;;;20.30;;
21114;SDS011;10715;48.546;9.896;2022-10-20T02:35:25;39.93;;;16.87;;
21114;SDS011;10715;48.546;9.896;2022-10-20T02:37:54;36.97;;;16.60;;
21114;SDS011;10715;48.546;9.896;2022-10-20T02:40:20;44.50;;;17.00;;
21114;SDS011;10715;48.546;9.896;2022-10-20T02:42:46;52.60;;;19.07;;
21114;SDS011;10715;48.546;9.896;2022-10-20T02:45:12;40.67;;;19.03;;
21114;SDS011;10715;48.546;9.896;2022-10-20T02:47:38;43.77;;;21.50;;
21114;SDS011;10715;48.546;9.896;2022-10-20T02:50:17;49.07;;;22.67;;
21114;SDS011;10715;48.546;9.896;2022-10-20T02:52:42;50.87;;;21.87;;
21114;SDS011;10715;48.546;9.896;2022-10-20T02:55:08;50.70;;;20.50;;
21114;SDS011;10715;48.546;9.896;2022-10-20T02:57:34;60.20;;;22.50;;
21114;SDS011;10715;48.546;9.896;2022-10-20T02:59:59;53.80;;;19.93;;
21114;SDS011;10715;48.546;9.896;2022-10-20T03:02:25;43.50;;;20.63;;
21114;SDS011;10715;48.546;9.896;2022-10-20T03:04:51;53.50;;;21.47;;
21114;SDS011;10715;48.546;9.896;2022-10-20T03:07:16;50.50;;;24.67;;
21114;SDS011;10715;48.546;9.896;2022-10-20T03:09:42;52.80;;;22.17;;
21114;SDS011;10715;48.546;9.896;2022-10-20T03:12:08;45.33;;;21.63;;
21114;SDS011;10715;48.546;9.896;2022-10-20T03:14:34;52.67;;;21.03;;
21114;SDS011;10715;48.546;9.896;2022-10-20T03:16:59;56.20;;;21.57;;
21114;SDS011;10715;48.546;9.896;2022-10-20T03:19:25;57.60;;;21.27;;
21114;SDS011;10715;48.546;9.896;2022-10-20T03:21:51;57.60;;;25.40;;
21114;SDS011;10715;48.546;9.896;2022-10-20T03:24:16;49.23;;;20.60;;
21114;SDS011;10715;48.546;9.896;2022-10-20T03:26:42;45.43;;;20.67;;
21114;SDS011;10715;48.546;9.896;2022-10-20T03:29:08;51.87;;;22.87;;
21114;SDS011;10715;48.546;9.896;2022-10-20T03:31:33;60.70;;;22.67;;
21114;SDS011;10715;48.546;9.896;2022-10-20T03:33:59;53.63;;;22.43;;
21114;SDS011;10715;48.546;9.896;2022-10-20T03:36:25;51.33;;;21.97;;
21114;SDS011;10715;48.546;9.896;2022-10-20T03:38:50;44.17;;;22.50;;
21114;SDS011;10715;48.546;9.896;2022-10-20T03:41:16;64.00;;;25.70;;
21114;SDS011;10715;48.546;9.896;2022-10-20T03:43:42;49.53;;;24.50;;
21114;SDS011;10715;48.546;9.896;2022-10-20T03:46:08;50.27;;;24.03;;
21114;SDS011;10715;48.546;9.896;2022-10-20T03:48:35;48.03;;;24.47;;
21114;SDS011;10715;48.546;9.896;2022-10-20T03:51:02;53.10;;;25.53;;
21114;SDS011;10715;48.546;9.896;2022-10-20T03:53:29;56.00;;;23.20;;
21114;SDS011;10715;48.546;9.896;2022-10-20T03:55:55;48.50;;;21.77;;
21114;SDS011;10715;48.546;9.896;2022-10-20T03:58:21;57.03;;;28.07;;
21114;SDS011;10715;48.546;9.896;2022-10-20T04:00:47;56.27;;;24.63;;
21114;SDS011;10715;48.546;9.896;2022-10-20T04:03:14;50.37;;;23.57;;
21114;SDS011;10715;48.546;9.896;2022-10-20T04:05:39;60.03;;;25.37;;
21114;SDS011;10715;48.546;9.896;2022-10-20T04:08:05;83.03;;;40.83;;
21114;SDS011;10715;48.546;9.896;2022-10-20T04:10:31;66.20;;;25.43;;
21114;SDS011;10715;48.546;9.896;2022-10-20T04:12:57;56.03;;;24.20;;
21114;SDS011;10715;48.546;9.896;2022-10-20T04:15:23;72.03;;;32.53;;
21114;SDS011;10715;48.546;9.896;2022-10-20T04:17:49;58.53;;;27.03;;
21114;SDS011;10715;48.546;9.896;2022-10-20T04:20:15;69.37;;;23.03;;
21114;SDS011;10715;48.546;9.896;2022-10-20T04:22:40;82.27;;;34.30;;
21114;SDS011;10715;48.546;9.896;2022-10-20T04:25:06;81.90;;;28.80;;
21114;SDS011;10715;48.546;9.896;2022-10-20T04:27:32;88.30;;;45.10;;
21114;SDS011;10715;48.546;9.896;2022-10-20T04:29:58;49.60;;;23.53;;
21114;SDS011;10715;48.546;9.896;2022-10-20T04:32:24;75.10;;;26.37;;
21114;SDS011;10715;48.546;9.896;2022-10-20T04:34:50;63.37;;;31.70;;
21114;SDS011;10715;48.546;9.896;2022-10-20T04:37:15;69.80;;;25.57;;
21114;SDS011;10715;48.546;9.896;2022-10-20T04:39:41;56.93;;;26.87;;
21114;SDS011;10715;48.546;9.896;2022-10-20T04:42:07;54.30;;;23.50;;
21114;SDS011;10715;48.546;9.896;2022-10-20T04:44:33;62.70;;;24.30;;
21114;SDS011;10715;48.546;9.896;2022-10-20T04:46:59;67.17;;;25.57;;
21114;SDS011;10715;48.546;9.896;2022-10-20T04:49:24;55.10;;;24.80;;
21114;SDS011;10715;48.546;9.896;2022-10-20T04:51:50;46.37;;;20.83;;
21114;SDS011;10715;48.546;9.896;2022-10-20T04:54:16;67.10;;;24.00;;
21114;SDS011;10715;48.546;9.896;2022-10-20T04:56:42;56.03;;;27.17;;
21114;SDS011;10715;48.546;9.896;2022-10-20T04:59:07;52.20;;;24.10;;
21114;SDS011;10715;48.546;9.896;2022-10-20T05:01:33;50.97;;;23.60;;
21114;SDS011;10715;48.546;9.896;2022-10-20T05:03:59;63.37;;;25.47;;
21114;SDS011;10715;48.546;9.896;2022-10-20T05:06:27;71.40;;;27.83;;
21114;SDS011;10715;48.546;9.896;2022-10-20T05:08:57;40.57;;;22.30;;
21114;SDS011;10715;48.546;9.896;2022-10-20T05:11:25;48.80;;;28.93;;
21114;SDS011;10715;48.546;9.896;2022-10-20T05:13:53;46.03;;;24.60;;
21114;SDS011;10715;48.546;9.896;2022-10-20T05:16:19;43.90;;;23.10;;
21114;SDS011;10715;48.546;9.896;2022-10-20T05:18:45;52.80;;;22.93;;
21114;SDS011;10715;48.546;9.896;2022-10-20T05:21:16;43.10;;;21.27;;
21114;SDS011;10715;48.546;9.896;2022-10-20T05:23:43;48.83;;;24.53;;
21114;SDS011;10715;48.546;9.896;2022-10-20T05:26:14;46.47;;;21.53;;
21114;SDS011;10715;48.546;9.896;2022-10-20T05:28:45;42.03;;;19.87;;
21114;SDS011;10715;48.546;9.896;2022-10-20T05:31:12;33.90;;;18.70;;
21114;SDS011;10715;48.546;9.896;2022-10-20T05:33:42;38.37;;;19.33;;
21114;SDS011;10715;48.546;9.896;2022-10-20T05:36:10;53.60;;;21.53;;
21114;SDS011;10715;48.546;9.896;2022-10-20T05:38:37;38.30;;;20.40;;
21114;SDS011;10715;48.546;9.896;2022-10-20T05:41:11;49.00;;;21.60;;
21114;SDS011;10715;48.546;9.896;2022-10-20T05:43:38;39.30;;;19.13;;
21114;SDS011;10715;48.546;9.896;2022-10-20T05:46:04;38.07;;;20.33;;
21114;SDS011;10715;48.546;9.896;2022-10-20T05:48:31;42.50;;;19.83;;
21114;SDS011;10715;48.546;9.896;2022-10-20T05:51:13;49.00;;;21.03;;
21114;SDS011;10715;48.546;9.896;2022-10-20T05:53:41;32.83;;;18.87;;
21114;SDS011;10715;48.546;9.896;2022-10-20T05:56:08;40.50;;;21.70;;
21114;SDS011;10715;48.546;9.896;2022-10-20T05:58:36;31.30;;;18.13;;
21114;SDS011;10715;48.546;9.896;2022-10-20T06:01:06;42.03;;;22.77;;
21114;SDS011;10715;48.546;9.896;2022-10-20T06:03:34;48.77;;;19.00;;
21114;SDS011;10715;48.546;9.896;2022-10-20T06:06:00;34.20;;;19.77;;
21114;SDS011;10715;48.546;9.896;2022-10-20T06:08:30;43.00;;;20.83;;
21114;SDS011;10715;48.546;9.896;2022-10-20T06:11:03;52.00;;;23.50;;
21114;SDS011;10715;48.546;9.896;2022-10-20T06:13:31;39.97;;;19.97;;
21114;SDS011;10715;48.546;9.896;2022-10-20T06:16:04;44.83;;;21.77;;
21114;SDS011;10715;48.546;9.896;2022-10-20T06:18:35;40.23;;;19.20;;
21114;SDS011;10715;48.546;9.896;2022-10-20T06:21:05;43.17;;;19.93;;
21114;SDS011;10715;48.546;9.896;2022-10-20T06:23:33;39.83;;;19.90;;
21114;SDS011;10715;48.546;9.896;2022-10-20T06:26:00;43.97;;;22.20;;
21114;SDS011;10715;48.546;9.896;2022-10-20T06:28:30;34.23;;;20.27;;
21114;SDS011;10715;48.546;9.896;2022-10-20T06:30:57;43.87;;;18.60;;
21114;SDS011;10715;48.546;9.896;2022-10-20T06:33:23;37.80;;;19.37;;
21114;SDS011;10715;48.546;9.896;2022-10-20T06:35:50;33.20;;;18.00;;
21114;SDS011;10715;48.546;9.896;2022-10-20T06:38:15;52.33;;;22.30;;
21114;SDS011;10715;48.546;9.896;2022-10-20T06:40:41;38.30;;;17.27;;
21114;SDS011;10715;48.546;9.896;2022-10-20T06:43:07;41.47;;;17.00;;
21114;SDS011;10715;48.546;9.896;2022-10-20T06:45:33;34.93;;;17.80;;
21114;SDS011;10715;48.546;9.896;2022-10-20T06:47:58;48.53;;;19.03;;
21114;SDS011;10715;48.546;9.896;2022-10-20T06:50:24;40.67;;;21.10;;
21114;SDS011;10715;48.546;9.896;2022-10-20T06:52:50;41.97;;;20.47;;
21114;SDS011;10715;48.546;9.896;2022-10-20T06:55:15;41.10;;;19.90;;
21114;SDS011;10715;48.546;9.896;2022-10-20T06:57:41;41.00;;;19.27;;
21114;SDS011;10715;48.546;9.896;2022-10-20T07:00:07;23.10;;;15.30;;
21114;SDS011;10715;48.546;9.896;2022-10-20T07:02:33;33.77;;;17.77;;
21114;SDS011;10715;48.546;9.896;2022-10-20T07:05:01;47.30;;;21.73;;
21114;SDS011;10715;48.546;9.896;2022-10-20T07:07:27;36.93;;;19.87;;
21114;SDS011;10715;48.546;9.896;2022-10-20T07:09:53;34.53;;;18.90;;
21114;SDS011;10715;48.546;9.896;2022-10-20T07:12:19;43.03;;;19.27;;
21114;SDS011;10715;48.546;9.896;2022-10-20T07:14:44;33.30;;;19.13;;
21114;SDS011;10715;48.546;9.896;2022-10-20T07:17:10;35.53;;;18.20;;
21114;SDS011;10715;48.546;9.896;2022-10-20T07:19:36;41.90;;;17.77;;
21114;SDS011;10715;48.546;9.896;2022-10-20T07:22:01;33.53;;;19.27;;
21114;SDS011;10715;48.546;9.896;2022-10-20T07:24:27;39.10;;;17.47;;
21114;SDS011;10715;48.546;9.896;2022-10-20T07:26:53;39.13;;;17.47;;
21114;SDS011;10715;48.546;9.896;2022-10-20T07:29:19;30.63;;;15.30;;
21114;SDS011;10715;48.546;9.896;2022-10-20T07:31:45;27.77;;;17.20;;
21114;SDS011;10715;48.546;9.896;2022-10-20T07:34:12;36.43;;;15.27;;
21114;SDS011;10715;48.546;9.896;2022-10-20T07:36:43;29.50;;;15.47;;
21114;SDS011;10715;48.546;9.896;2022-10-20T07:39:09;34.53;;;16.67;;
21114;SDS011;10715;48.546;9.896;2022-10-20T07:41:36;40.73;;;15.13;;
21114;SDS011;10715;48.546;9.896;2022-10-20T07:44:03;26.70;;;15.60;;
21114;SDS011;10715;48.546;9.896;2022-10-20T07:46:30;25.23;;;15.33;;
21114;SDS011;10715;48.546;9.896;2022-10-20T07:48:55;24.27;;;14.23;;
21114;SDS011;10715;48.546;9.896;2022-10-20T07:53:51;21.07;;;12.40;;
21114;SDS011;10715;48.546;9.896;2022-10-20T07:56:18;22.43;;;13.20;;
21114;SDS011;10715;48.546;9.896;2022-10-20T07:58:44;19.43;;;12.17;;
21114;SDS011;10715;48.546;9.896;2022-10-20T08:01:10;24.73;;;12.87;;
21114;SDS011;10715;48.546;9.896;2022-10-20T08:03:37;28.00;;;13.17;;
21114;SDS011;10715;48.546;9.896;2022-10-20T08:06:03;23.57;;;11.10;;
21114;SDS011;10715;48.546;9.896;2022-10-20T08:08:29;29.20;;;13.70;;
21114;SDS011;10715;48.546;9.896;2022-10-20T08:10:55;29.90;;;13.13;;
21114;SDS011;10715;48.546;9.896;2022-10-20T08:13:25;20.70;;;12.00;;
21114;SDS011;10715;48.546;9.896;2022-10-20T08:15:52;21.87;;;13.30;;
21114;SDS011;10715;48.546;9.896;2022-10-20T08:18:18;27.13;;;13.40;;
21114;SDS011;10715;48.546;9.896;2022-10-20T08:20:44;28.10;;;12.57;;
21114;SDS011;10715;48.546;9.896;2022-10-20T08:23:10;23.77;;;13.70;;
21114;SDS011;10715;48.546;9.896;2022-10-20T08:25:37;18.33;;;10.60;;
21114;SDS011;10715;48.546;9.896;2022-10-20T08:28:03;18.10;;;10.67;;
21114;SDS011;10715;48.546;9.896;2022-10-20T08:30:29;24.53;;;11.93;;
21114;SDS011;10715;48.546;9.896;2022-10-20T08:32:55;19.27;;;11.17;;
21114;SDS011;10715;48.546;9.896;2022-10-20T08:35:21;24.53;;;10.97;;
21114;SDS011;10715;48.546;9.896;2022-10-20T08:37:47;31.67;;;12.93;;
21114;SDS011;10715;48.546;9.896;2022-10-20T08:40:15;28.90;;;12.50;;
21114;SDS011;10715;48.546;9.896;2022-10-20T08:42:43;29.00;;;12.53;;
21114;SDS011;10715;48.546;9.896;2022-10-20T08:45:13;26.53;;;12.07;;
21114;SDS011;10715;48.546;9.896;2022-10-20T08:47:39;17.20;;;10.97;;
21114;SDS011;10715;48.546;9.896;2022-10-20T08:50:06;16.63;;;11.70;;
21114;SDS011;10715;48.546;9.896;2022-10-20T08:52:37;32.37;;;12.30;;
21114;SDS011;10715;48.546;9.896;2022-10-20T08:55:05;27.67;;;11.50;;
21114;SDS011;10715;48.546;9.896;2022-10-20T08:57:31;13.70;;;9.40;;
21114;SDS011;10715;48.546;9.896;2022-10-20T09:02:43;18.03;;;10.20;;
21114;SDS011;10715;48.546;9.896;2022-10-20T09:05:09;20.43;;;11.07;;
21114;SDS011;10715;48.546;9.896;2022-10-20T09:07:38;12.20;;;8.87;;
21114;SDS011;10715;48.546;9.896;2022-10-20T09:12:46;18.33;;;11.60;;
21114;SDS011;10715;48.546;9.896;2022-10-20T09:15:13;19.90;;;10.90;;
21114;SDS011;10715;48.546;9.896;2022-10-20T09:17:41;17.53;;;10.03;;
21114;SDS011;10715;48.546;9.896;2022-10-20T09:20:24;27.43;;;11.27;;
21114;SDS011;10715;48.546;9.896;2022-10-20T09:23:14;15.77;;;10.60;;
21114;SDS011;10715;48.546;9.896;2022-10-20T09:25:42;19.43;;;9.80;;
21114;SDS011;10715;48.546;9.896;2022-10-20T09:28:20;29.33;;;15.43;;
21114;SDS011;10715;48.546;9.896;2022-10-20T09:30:48;22.70;;;12.57;;
21114;SDS011;10715;48.546;9.896;2022-10-20T09:35:49;19.93;;;11.03;;
21114;SDS011;10715;48.546;9.896;2022-10-20T09:38:20;30.20;;;13.00;;
21114;SDS011;10715;48.546;9.896;2022-10-20T09:43:22;23.83;;;10.10;;
21114;SDS011;10715;48.546;9.896;2022-10-20T09:45:54;18.80;;;10.93;;
21114;SDS011;10715;48.546;9.896;2022-10-20T09:48:24;15.20;;;11.07;;
21114;SDS011;10715;48.546;9.896;2022-10-20T09:50:58;15.27;;;9.80;;
21114;SDS011;10715;48.546;9.896;2022-10-20T09:53:32;23.93;;;11.03;;
21114;SDS011;10715;48.546;9.896;2022-10-20T09:56:24;20.60;;;12.43;;
21114;SDS011;10715;48.546;9.896;2022-10-20T09:58:50;20.93;;;13.07;;
21114;SDS011;10715;48.546;9.896;2022-10-20T10:01:16;23.53;;;11.60;;
21114;SDS011;10715;48.546;9.896;2022-10-20T10:03:43;27.00;;;11.37;;
21114;SDS011;10715;48.546;9.896;2022-10-20T10:09:27;22.10;;;12.70;;
21114;SDS011;10715;48.546;9.896;2022-10-20T10:12:23;15.17;;;11.33;;
21114;SDS011;10715;48.546;9.896;2022-10-20T10:14:50;13.93;;;9.67;;
21114;SDS011;10715;48.546;9.896;2022-10-20T10:20:48;22.97;;;10.67;;
21114;SDS011;10715;48.546;9.896;2022-10-20T10:23:19;16.20;;;9.80;;
21114;SDS011;10715;48.546;9.896;2022-10-20T10:25:45;15.30;;;10.83;;
21114;SDS011;10715;48.546;9.896;2022-10-20T10:31:06;15.03;;;8.60;;
21114;SDS011;10715;48.546;9.896;2022-10-20T10:33:34;22.80;;;12.20;;
21114;SDS011;10715;48.546;9.896;2022-10-20T10:36:00;18.00;;;11.70;;
21114;SDS011;10715;48.546;9.896;2022-10-20T10:38:30;15.57;;;9.27;;
21114;SDS011;10715;48.546;9.896;2022-10-20T10:41:39;20.83;;;12.50;;
21114;SDS011;10715;48.546;9.896;2022-10-20T10:44:18;26.83;;;13.70;;
21114;SDS011;10715;48.546;9.896;2022-10-20T10:49:59;23.90;;;12.40;;
21114;SDS011;10715;48.546;9.896;2022-10-20T10:52:41;23.90;;;14.60;;
21114;SDS011;10715;48.546;9.896;2022-10-20T10:56:02;20.73;;;12.00;;
21114;SDS011;10715;48.546;9.896;2022-10-20T11:14:14;15.33;;;10.83;;
21114;SDS011;10715;48.546;9.896;2022-10-20T11:17:05;19.27;;;10.57;;
21114;SDS011;10715;48.546;9.896;2022-10-20T11:19:54;19.10;;;12.13;;
21114;SDS011;10715;48.546;9.896;2022-10-20T11:27:49;25.10;;;14.57;;
21114;SDS011;10715;48.546;9.896;2022-10-20T11:30:16;27.93;;;16.63;;
21114;SDS011;10715;48.546;9.896;2022-10-20T11:40:44;23.90;;;15.50;;
21114;SDS011;10715;48.546;9.896;2022-10-20T11:43:25;25.33;;;14.77;;
21114;SDS011;10715;48.546;9.896;2022-10-20T11:45:55;24.70;;;14.93;;
21114;SDS011;10715;48.546;9.896;2022-10-20T11:48:52;26.47;;;15.47;;
21114;SDS011;10715;48.546;9.896;2022-10-20T12:12:50;24.87;;;12.50;;
21114;SDS011;10715;48.546;9.896;2022-10-20T12:15:26;20.77;;;11.70;;
21114;SDS011;10715;48.546;9.896;2022-10-20T12:17:52;27.30;;;15.20;;
21114;SDS011;10715;48.546;9.896;2022-10-20T12:22:53;22.20;;;13.77;;
21114;SDS011;10715;48.546;9.896;2022-10-20T12:30:54;20.57;;;12.20;;
21114;SDS011;10715;48.546;9.896;2022-10-20T12:38:42;29.50;;;14.17;;
21114;SDS011;10715;48.546;9.896;2022-10-20T12:41:08;29.57;;;16.27;;
21114;SDS011;10715;48.546;9.896;2022-10-20T12:43:50;33.20;;;14.73;;
21114;SDS011;10715;48.546;9.896;2022-10-20T12:46:19;22.60;;;13.47;;
21114;SDS011;10715;48.546;9.896;2022-10-20T12:48:49;29.57;;;15.20;;
21114;SDS011;10715;48.546;9.896;2022-10-20T12:52:03;28.70;;;14.93;;
21114;SDS011;10715;48.546;9.896;2022-10-20T12:57:05;31.03;;;16.97;;
21114;SDS011;10715;48.546;9.896;2022-10-20T12:59:59;32.53;;;17.00;;
21114;SDS011;10715;48.546;9.896;2022-10-20T13:20:51;59.07;;;23.47;;
21114;SDS011;10715;48.546;9.896;2022-10-20T13:26:09;48.67;;;23.00;;
21114;SDS011;10715;48.546;9.896;2022-10-20T13:28:46;35.87;;;20.63;;
21114;SDS011;10715;48.546;9.896;2022-10-20T13:36:45;35.27;;;21.47;;
21114;SDS011;10715;48.546;9.896;2022-10-20T13:45:01;48.03;;;23.00;;
21114;SDS011;10715;48.546;9.896;2022-10-20T13:50:47;42.80;;;22.17;;
21114;SDS011;10715;48.546;9.896;2022-10-20T13:53:22;34.23;;;18.93;;
21114;SDS011;10715;48.546;9.896;2022-10-20T13:58:39;39.37;;;20.67;;
21114;SDS011;10715;48.546;9.896;2022-10-20T14:01:15;40.87;;;22.10;;
21114;SDS011;10715;48.546;9.896;2022-10-20T14:03:48;36.23;;;18.37;;
21114;SDS011;10715;48.546;9.896;2022-10-20T14:06:34;30.83;;;17.23;;
21114;SDS011;10715;48.546;9.896;2022-10-20T14:09:34;26.20;;;14.40;;
21114;SDS011;10715;48.546;9.896;2022-10-20T14:12:04;25.50;;;15.77;;
21114;SDS011;10715;48.546;9.896;2022-10-20T14:14:44;36.33;;;15.13;;
21114;SDS011;10715;48.546;9.896;2022-10-20T14:17:16;25.03;;;14.13;;
21114;SDS011;10715;48.546;9.896;2022-10-20T14:19:44;22.20;;;11.97;;
21114;SDS011;10715;48.546;9.896;2022-10-20T14:24:46;20.13;;;12.23;;
21114;SDS011;10715;48.546;9.896;2022-10-20T14:27:18;34.33;;;18.70;;
21114;SDS011;10715;48.546;9.896;2022-10-20T14:29:46;29.67;;;15.20;;
21114;SDS011;10715;48.546;9.896;2022-10-20T14:32:15;23.50;;;13.97;;
21114;SDS011;10715;48.546;9.896;2022-10-20T14:35:10;29.07;;;16.10;;
21114;SDS011;10715;48.546;9.896;2022-10-20T14:38:06;25.17;;;15.40;;
21114;SDS011;10715;48.546;9.896;2022-10-20T14:40:53;21.03;;;13.90;;
21114;SDS011;10715;48.546;9.896;2022-10-20T14:46:11;25.40;;;13.20;;
21114;SDS011;10715;48.546;9.896;2022-10-20T14:48:47;24.17;;;13.60;;
21114;SDS011;10715;48.546;9.896;2022-10-20T14:51:28;32.37;;;16.20;;
21114;SDS011;10715;48.546;9.896;2022-10-20T14:56:47;24.57;;;14.20;;
21114;SDS011;10715;48.546;9.896;2022-10-20T14:59:16;33.57;;;16.67;;
21114;SDS011;10715;48.546;9.896;2022-10-20T15:04:37;27.20;;;15.53;;
21114;SDS011;10715;48.546;9.896;2022-10-20T15:07:12;23.37;;;14.77;;
21114;SDS011;10715;48.546;9.896;2022-10-20T15:12:13;33.17;;;17.43;;
21114;SDS011;10715;48.546;9.896;2022-10-20T15:17:42;70.70;;;32.10;;
21114;SDS011;10715;48.546;9.896;2022-10-20T15:30:56;37.90;;;19.07;;
21114;SDS011;10715;48.546;9.896;2022-10-20T15:33:23;44.13;;;21.50;;
21114;SDS011;10715;48.546;9.896;2022-10-20T15:35:49;33.67;;;18.37;;
21114;SDS011;10715;48.546;9.896;2022-10-20T15:38:16;44.47;;;22.20;;
21114;SDS011;10715;48.546;9.896;2022-10-20T15:40:42;94.33;;;46.67;;
21114;SDS011;10715;48.546;9.896;2022-10-20T15:43:10;67.73;;;34.43;;
21114;SDS011;10715;48.546;9.896;2022-10-20T15:45:37;68.40;;;33.87;;
21114;SDS011;10715;48.546;9.896;2022-10-20T15:48:05;56.07;;;27.47;;
21114;SDS011;10715;48.546;9.896;2022-10-20T15:50:31;56.60;;;28.30;;
21114;SDS011;10715;48.546;9.896;2022-10-20T15:52:56;51.93;;;28.57;;
21114;SDS011;10715;48.546;9.896;2022-10-20T15:55:27;56.97;;;27.37;;
21114;SDS011;10715;48.546;9.896;2022-10-20T15:57:55;56.30;;;29.40;;
21114;SDS011;10715;48.546;9.896;2022-10-20T16:00:21;41.47;;;25.07;;
21114;SDS011;10715;48.546;9.896;2022-10-20T16:02:48;53.87;;;26.83;;
21114;SDS011;10715;48.546;9.896;2022-10-20T16:05:15;50.90;;;27.30;;
21114;SDS011;10715;48.546;9.896;2022-10-20T16:07:45;130.93;;;86.90;;
21114;SDS011;10715;48.546;9.896;2022-10-20T16:10:11;61.70;;;31.80;;
21114;SDS011;10715;48.546;9.896;2022-10-20T16:12:38;55.60;;;25.90;;
21114;SDS011;10715;48.546;9.896;2022-10-20T16:15:07;54.77;;;29.10;;
21114;SDS011;10715;48.546;9.896;2022-10-20T16:17:34;64.17;;;30.77;;
21114;SDS011;10715;48.546;9.896;2022-10-20T16:20:00;54.97;;;30.80;;
21114;SDS011;10715;48.546;9.896;2022-10-20T16:22:27;54.63;;;27.17;;
21114;SDS011;10715;48.546;9.896;2022-10-20T16:24:52;48.43;;;26.00;;
21114;SDS011;10715;48.546;9.896;2022-10-20T16:27:20;56.50;;;27.00;;
21114;SDS011;10715;48.546;9.896;2022-10-20T16:29:46;61.40;;;29.23;;
21114;SDS011;10715;48.546;9.896;2022-10-20T16:32:14;58.53;;;29.73;;
21114;SDS011;10715;48.546;9.896;2022-10-20T16:34:40;54.23;;;27.07;;
21114;SDS011;10715;48.546;9.896;2022-10-20T16:37:06;59.50;;;26.70;;
21114;SDS011;10715;48.546;9.896;2022-10-20T16:39:32;52.80;;;28.33;;
21114;SDS011;10715;48.546;9.896;2022-10-20T16:41:57;49.40;;;25.20;;
21114;SDS011;10715;48.546;9.896;2022-10-20T16:44:23;47.77;;;25.80;;
21114;SDS011;10715;48.546;9.896;2022-10-20T16:46:49;57.33;;;26.33;;
21114;SDS011;10715;48.546;9.896;2022-10-20T16:49:14;60.67;;;28.63;;
21114;SDS011;10715;48.546;9.896;2022-10-20T16:51:40;49.40;;;27.13;;
21114;SDS011;10715;48.546;9.896;2022-10-20T16:54:06;51.73;;;27.07;;
21114;SDS011;10715;48.546;9.896;2022-10-20T16:56:31;51.60;;;27.93;;
21114;SDS011;10715;48.546;9.896;2022-10-20T16:58:57;47.17;;;26.40;;
21114;SDS011;10715;48.546;9.896;2022-10-20T17:01:23;58.23;;;28.97;;
21114;SDS011;10715;48.546;9.896;2022-10-20T17:03:50;48.40;;;28.00;;
21114;SDS011;10715;48.546;9.896;2022-10-20T17:06:17;48.70;;;27.30;;
21114;SDS011;10715;48.546;9.896;2022-10-20T17:08:45;55.50;;;26.30;;
21114;SDS011;10715;48.546;9.896;2022-10-20T17:11:15;42.10;;;24.50;;
21114;SDS011;10715;48.546;9.896;2022-10-20T17:13:43;48.93;;;24.83;;
21114;SDS011;10715;48.546;9.896;2022-10-20T17:16:16;50.13;;;24.40;;
21114;SDS011;10715;48.546;9.896;2022-10-20T17:18:44;45.20;;;23.50;;
21114;SDS011;10715;48.546;9.896;2022-10-20T17:21:10;47.97;;;24.90;;
21114;SDS011;10715;48.546;9.896;2022-10-20T17:23:38;54.90;;;25.47;;
21114;SDS011;10715;48.546;9.896;2022-10-20T17:26:06;46.67;;;23.93;;
21114;SDS011;10715;48.546;9.896;2022-10-20T17:28:33;44.13;;;24.90;;
21114;SDS011;10715;48.546;9.896;2022-10-20T17:31:00;48.20;;;25.40;;
21114;SDS011;10715;48.546;9.896;2022-10-20T17:33:27;61.90;;;24.27;;
21114;SDS011;10715;48.546;9.896;2022-10-20T17:35:54;50.93;;;25.07;;
21114;SDS011;10715;48.546;9.896;2022-10-20T17:38:21;51.40;;;24.40;;